Colwell, Iowa
Current Conditions -  °F | °C
As of 6:15 PM on Friday 24 Oct 2014 (Local Time) from KCCY Reporting Station
Haze Haze  
Wind Chill: 59°   Ceiling: 800
Heat Index: 59°   Visibility: 0.75mi
Dew Point: 59°   Wind: 5mph
Humidity: 100%   Direction: 160°SSE
Pressure: 29.9"   Gusts: NA
Location:  43.16°N, 92.59°W
Report Text: KCCY 242315Z AUTO 16004KT 3/4SM BR OVC008 15/15 A2990 RMK AO2
Loading
Personal Weather Stations






























Interactive Weather Map
Tropical Storm Tracking
New forecast layout! Learn more

10-Day Weather Forecast

Advertisements
Track Severe Weather on mobile